GDKEY EGJJ-EGJB

Flight info

Callsign GDKEY
Flight time 0h 19m
Altitude 4000
Route VFR TO GUERNSEY
Aircraft C152/L-VGD/A

Departure

Time 2026-04-20 19:18
Airport Jersey Airport (EGJJ)

Arrival

Time 2026-04-20 19:38
Airport Guernsey Airport (EGJB)
Time Latitude Longitude Altitude Speed Heading
2026-04-20 19:08 49.20398 -2.19725 274 ft 0 kts 177°
2026-04-20 19:13 49.20396 -2.19726 274 ft 0 kts 204°
2026-04-20 19:13 49.20405 -2.19764 274 ft 8 kts 304°
2026-04-20 19:13 49.20428 -2.19850 274 ft 10 kts 300°
2026-04-20 19:13 49.20434 -2.19865 274 ft 0 kts 300°
2026-04-20 19:14 49.20439 -2.19878 274 ft 6 kts 300°
2026-04-20 19:14 49.20480 -2.19938 274 ft 11 kts 330°
2026-04-20 19:14 49.20530 -2.20053 274 ft 16 kts 284°
2026-04-20 19:14 49.20568 -2.20249 274 ft 22 kts 287°
2026-04-20 19:15 49.20605 -2.20448 274 ft 17 kts 286°
2026-04-20 19:15 49.20616 -2.20502 274 ft 0 kts 287°
2026-04-20 19:16 49.20619 -2.20514 274 ft 6 kts 288°
2026-04-20 19:16 49.20628 -2.20652 274 ft 13 kts 277°
2026-04-20 19:17 49.20692 -2.20689 274 ft 12 kts 72°
2026-04-20 19:17 49.20713 -2.20586 273 ft 9 kts 80°
2026-04-20 19:17 49.20732 -2.20397 274 ft 40 kts 81°
2026-04-20 19:17 49.20786 -2.19828 362 ft 61 kts 83°
2026-04-20 19:18 49.20855 -2.19187 538 ft 65 kts 77°
2026-04-20 19:18 49.20938 -2.18511 715 ft 65 kts 75°
2026-04-20 19:18 49.21177 -2.17895 862 ft 70 kts 50°
2026-04-20 19:18 49.21607 -2.17472 972 ft 78 kts 38°
2026-04-20 19:19 49.22077 -2.17019 1005 ft 83 kts 43°
2026-04-20 19:19 49.22577 -2.16539 1050 ft 82 kts 39°
2026-04-20 19:19 49.23062 -2.16122 1097 ft 81 kts 44°
2026-04-20 19:19 49.23570 -2.15637 1008 ft 90 kts 38°
2026-04-20 19:20 49.24135 -2.15188 992 ft 91 kts 33°
2026-04-20 19:20 49.24733 -2.14842 941 ft 95 kts 24°
2026-04-20 19:20 49.25424 -2.14780 890 ft 105 kts
2026-04-20 19:20 49.26113 -2.15208 940 ft 112 kts 336°
2026-04-20 19:21 49.26691 -2.16080 897 ft 122 kts 315°
2026-04-20 19:21 49.27096 -2.17236 901 ft 123 kts 300°
2026-04-20 19:21 49.27353 -2.18478 912 ft 125 kts 288°
2026-04-20 19:21 49.27534 -2.19779 922 ft 125 kts 285°
2026-04-20 19:22 49.27671 -2.21133 878 ft 129 kts 284°
2026-04-20 19:22 49.27796 -2.22463 925 ft 127 kts 283°
2026-04-20 19:22 49.27901 -2.23808 946 ft 126 kts 283°
2026-04-20 19:22 49.28028 -2.25131 928 ft 127 kts 283°
2026-04-20 19:23 49.28143 -2.26470 931 ft 126 kts 282°
2026-04-20 19:23 49.28236 -2.27809 953 ft 125 kts 278°
2026-04-20 19:23 49.28308 -2.29147 937 ft 129 kts 281°
2026-04-20 19:23 49.28416 -2.30513 950 ft 128 kts 283°
2026-04-20 19:24 49.28529 -2.31874 967 ft 128 kts 282°
2026-04-20 19:24 49.28632 -2.33228 977 ft 129 kts 282°
2026-04-20 19:24 49.28726 -2.34573 1012 ft 127 kts 282°
2026-04-20 19:24 49.28821 -2.35921 1049 ft 127 kts 281°
2026-04-20 19:25 49.28901 -2.37265 1062 ft 127 kts 283°
2026-04-20 19:25 49.29030 -2.38616 1048 ft 129 kts 284°
2026-04-20 19:25 49.29169 -2.39996 1000 ft 130 kts 284°
2026-04-20 19:25 49.29428 -2.41320 898 ft 132 kts 296°
2026-04-20 19:26 49.29740 -2.42627 903 ft 128 kts 296°
2026-04-20 19:26 49.30020 -2.43937 820 ft 134 kts 291°
2026-04-20 19:26 49.30306 -2.45275 797 ft 130 kts 295°
2026-04-20 19:26 49.30598 -2.46581 812 ft 127 kts 294°
2026-04-20 19:27 49.30854 -2.47840 848 ft 125 kts 296°
2026-04-20 19:27 49.31128 -2.49123 837 ft 127 kts 295°
2026-04-20 19:27 49.31396 -2.50413 848 ft 128 kts 294°
2026-04-20 19:27 49.31653 -2.51711 874 ft 126 kts 291°
2026-04-20 19:28 49.31879 -2.53008 916 ft 126 kts 290°
2026-04-20 19:28 49.32125 -2.54304 938 ft 126 kts 291°
2026-04-20 19:28 49.32368 -2.55590 934 ft 128 kts 290°
2026-04-20 19:28 49.32612 -2.56901 976 ft 126 kts 292°
2026-04-20 19:29 49.32931 -2.58158 989 ft 126 kts 298°
2026-04-20 19:29 49.33231 -2.59394 1043 ft 125 kts 297°
2026-04-20 19:29 49.33520 -2.60659 1074 ft 125 kts 295°
2026-04-20 19:29 49.33801 -2.61929 1075 ft 127 kts 295°
2026-04-20 19:30 49.34081 -2.63210 1121 ft 125 kts 295°
2026-04-20 19:30 49.34356 -2.64498 1146 ft 128 kts 294°
2026-04-20 19:30 49.34624 -2.65800 1142 ft 132 kts 294°
2026-04-20 19:30 49.34917 -2.67174 975 ft 138 kts 295°
2026-04-20 19:31 49.35250 -2.68559 847 ft 134 kts 296°
2026-04-20 19:31 49.35564 -2.69878 771 ft 131 kts 296°
2026-04-20 19:31 49.35918 -2.71124 778 ft 123 kts 306°
2026-04-20 19:31 49.36338 -2.72197 855 ft 117 kts 311°
2026-04-20 19:32 49.36805 -2.73167 1003 ft 107 kts 325°
2026-04-20 19:32 49.37356 -2.73897 1127 ft 103 kts 338°
2026-04-20 19:32 49.38001 -2.74396 1106 ft 108 kts 352°
2026-04-20 19:32 49.38691 -2.74648 1206 ft 95 kts 10°
2026-04-20 19:33 49.39359 -2.74587 1205 ft 99 kts 18°
2026-04-20 19:33 49.40060 -2.74438 1136 ft 104 kts 19°
2026-04-20 19:33 49.40760 -2.74273 1143 ft 99 kts 22°
2026-04-20 19:33 49.41451 -2.74084 1107 ft 101 kts 22°
2026-04-20 19:34 49.42116 -2.73812 1088 ft 100 kts 27°
2026-04-20 19:34 49.42767 -2.73470 1077 ft 96 kts 32°
2026-04-20 19:34 49.43294 -2.72965 1174 ft 84 kts 52°
2026-04-20 19:34 49.43547 -2.72233 1315 ft 74 kts 82°
2026-04-20 19:35 49.43522 -2.71384 1333 ft 84 kts 93°
2026-04-20 19:35 49.43447 -2.70476 1311 ft 87 kts 95°
2026-04-20 19:35 49.43366 -2.69536 1252 ft 90 kts 92°
2026-04-20 19:35 49.43305 -2.68595 1189 ft 89 kts 89°
2026-04-20 19:36 49.43311 -2.67652 1133 ft 87 kts 85°
2026-04-20 19:36 49.43311 -2.66762 1127 ft 79 kts 85°
2026-04-20 19:36 49.43330 -2.65926 1103 ft 72 kts 84°
2026-04-20 19:36 49.43370 -2.65224 972 ft 62 kts 85°
2026-04-20 19:37 49.43385 -2.64581 839 ft 61 kts 87°
2026-04-20 19:37 49.43399 -2.63930 733 ft 60 kts 85°
2026-04-20 19:37 49.43419 -2.63289 658 ft 62 kts 83°
2026-04-20 19:37 49.43441 -2.62601 535 ft 66 kts 84°
2026-04-20 19:38 49.43461 -2.61910 411 ft 66 kts 85°
2026-04-20 19:38 49.43471 -2.61342 320 ft 40 kts 90°
2026-04-20 19:38 49.43470 -2.61048 313 ft 19 kts 87°
2026-04-20 19:38 49.43477 -2.60862 316 ft 14 kts 85°
2026-04-20 19:39 49.43481 -2.60761 317 ft 10 kts 89°
2026-04-20 19:39 49.43455 -2.60662 318 ft 11 kts 155°
2026-04-20 19:39 49.43373 -2.60655 318 ft 8 kts 176°
2026-04-20 19:39 49.43369 -2.60655 318 ft 0 kts 174°
2026-04-20 19:40 49.43353 -2.60647 318 ft 6 kts 150°
2026-04-20 19:41 49.43330 -2.60602 318 ft 5 kts 105°
2026-04-20 19:41 49.43327 -2.60545 319 ft 6 kts 89°
2026-04-20 19:41 49.43328 -2.60480 320 ft 6 kts 88°
2026-04-20 19:41 49.43330 -2.60416 321 ft 6 kts 88°
2026-04-20 19:42 49.43332 -2.60349 323 ft 6 kts 88°
2026-04-20 19:42 49.43333 -2.60272 324 ft 8 kts 88°
2026-04-20 19:42 49.43336 -2.60176 325 ft 10 kts 88°
2026-04-20 19:42 49.43338 -2.60067 327 ft 10 kts 88°
2026-04-20 19:43 49.43330 -2.59974 328 ft 8 kts 157°
2026-04-20 19:43 49.43274 -2.59948 328 ft 8 kts 103°
2026-04-20 19:43 49.43293 -2.59903 330 ft 4 kts 112°
2026-04-20 19:43 49.43278 -2.59916 329 ft 0 kts 268°